createdAt,value
2018-08-06T00:00:29.452Z,48.70
2018-08-06T00:02:58.730Z,48.70
2018-08-06T00:05:28.017Z,48.70
2018-08-06T00:07:57.294Z,48.70
2018-08-06T00:10:27.428Z,48.60
2018-08-06T00:12:56.717Z,48.70
2018-08-06T00:15:26.012Z,48.10
2018-08-06T00:17:55.328Z,48.10
2018-08-06T00:20:26.022Z,48.00
2018-08-06T00:22:55.308Z,48.60
2018-08-06T00:25:24.656Z,48.50
2018-08-06T00:30:24.875Z,48.00
2018-08-06T00:32:56.136Z,48.50
2018-08-06T00:35:25.403Z,47.90
2018-08-06T00:37:54.643Z,48.50
2018-08-06T00:40:25.351Z,48.40
2018-08-06T00:42:54.711Z,48.40
2018-08-06T00:45:24.073Z,48.30
2018-08-06T00:47:54.418Z,48.30
2018-08-06T00:50:28.584Z,48.30
2018-08-06T00:52:58.377Z,48.30
2018-08-06T00:55:28.027Z,48.30
2018-08-06T00:57:57.795Z,48.30
2018-08-06T01:00:27.078Z,48.20
2018-08-06T01:02:56.560Z,48.20
2018-08-06T01:05:26.048Z,48.20
2018-08-06T01:08:00.177Z,48.30
2018-08-06T01:10:29.457Z,48.30
2018-08-06T01:12:58.739Z,48.30
2018-08-06T01:15:28.019Z,48.30
2018-08-06T01:17:57.472Z,48.30
2018-08-06T01:20:26.726Z,47.70
2018-08-06T01:22:55.977Z,47.80
2018-08-06T01:25:25.221Z,47.80
2018-08-06T01:30:23.331Z,47.70
2018-08-06T01:32:52.681Z,47.60
2018-08-06T01:35:21.950Z,47.60
2018-08-06T01:37:51.398Z,47.50
2018-08-06T01:40:20.684Z,47.60
2018-08-06T01:42:50.175Z,47.00
2018-08-06T01:45:19.460Z,47.60
2018-08-06T01:47:48.716Z,47.20
2018-08-06T01:50:18.003Z,47.70
2018-08-06T01:52:47.400Z,47.70
2018-08-06T01:55:16.711Z,47.90
2018-08-06T01:57:46.031Z,47.80
2018-08-06T02:00:16.476Z,47.40
2018-08-06T02:02:45.777Z,47.90
2018-08-06T02:05:15.065Z,48.00
2018-08-06T02:07:44.431Z,47.60
2018-08-06T02:10:15.386Z,47.70
2018-08-06T02:12:45.110Z,47.60
2018-08-06T02:15:14.607Z,48.20
2018-08-06T02:17:44.092Z,48.30
2018-08-06T02:20:16.762Z,48.20
2018-08-06T02:22:47.239Z,47.70
2018-08-06T02:25:16.586Z,47.70
2018-08-06T02:27:46.181Z,48.30
2018-08-06T02:30:16.311Z,48.20
2018-08-06T02:32:45.579Z,48.30
2018-08-06T02:35:15.709Z,48.30
2018-08-06T02:37:45.078Z,48.30
2018-08-06T02:40:18.008Z,48.30
2018-08-06T02:42:47.603Z,48.90
2018-08-06T02:45:17.461Z,48.30
2018-08-06T02:47:46.981Z,48.30
2018-08-06T02:50:16.300Z,48.30
2018-08-06T02:52:46.026Z,48.40
2018-08-06T02:55:16.371Z,48.40
2018-08-06T02:57:45.785Z,48.40
2018-08-06T03:00:16.635Z,48.50
2018-08-06T03:02:46.672Z,48.40
2018-08-06T03:05:17.077Z,48.40
2018-08-06T03:07:46.760Z,48.40
2018-08-06T03:10:16.278Z,48.40
2018-08-06T03:12:46.279Z,48.50
2018-08-06T03:15:15.548Z,47.90
2018-08-06T03:17:44.852Z,48.40
2018-08-06T03:20:14.671Z,48.50
2018-08-06T03:22:43.946Z,48.50
2018-08-06T03:25:14.854Z,48.40
2018-08-06T03:27:44.747Z,48.40
2018-08-06T03:30:15.590Z,48.40
2018-08-06T03:32:46.232Z,48.50
2018-08-06T03:35:15.613Z,48.50
2018-08-06T03:37:44.952Z,48.50
2018-08-06T03:40:14.432Z,48.40
2018-08-06T03:42:43.654Z,48.40
2018-08-06T03:45:13.032Z,48.40
2018-08-06T03:47:42.849Z,48.40
2018-08-06T03:50:13.275Z,48.40
2018-08-06T03:52:42.852Z,48.60
2018-08-06T03:55:12.395Z,48.40
2018-08-06T03:57:42.099Z,48.50
2018-08-06T04:00:13.739Z,48.50
2018-08-06T04:02:43.379Z,48.40
2018-08-06T04:05:13.725Z,48.40
2018-08-06T04:07:43.112Z,48.40
2018-08-06T04:10:14.251Z,48.40
2018-08-06T04:12:43.568Z,48.60
2018-08-06T04:15:13.158Z,48.50
2018-08-06T04:17:43.084Z,48.50
2018-08-06T04:20:13.099Z,48.60
2018-08-06T04:22:43.120Z,48.60
2018-08-06T04:25:12.720Z,48.40
2018-08-06T04:27:42.099Z,48.40
2018-08-06T04:30:15.644Z,48.40
2018-08-06T04:32:46.025Z,48.40
2018-08-06T04:35:15.647Z,48.40
2018-08-06T04:37:45.504Z,48.40
2018-08-06T04:40:14.924Z,48.40
2018-08-06T04:45:13.248Z,49.00
2018-08-06T04:47:42.774Z,49.00
2018-08-06T04:50:13.826Z,48.70
2018-08-06T04:52:43.614Z,48.60
2018-08-06T04:55:14.158Z,48.50
2018-08-06T04:57:43.486Z,48.40
2018-08-06T05:00:14.405Z,48.60
2018-08-06T05:02:44.094Z,48.60
2018-08-06T05:05:13.664Z,48.70
2018-08-06T05:07:42.973Z,48.80
2018-08-06T05:10:12.259Z,48.50
2018-08-06T05:12:41.617Z,49.00
2018-08-06T05:15:10.887Z,49.20
2018-08-06T05:17:40.175Z,49.10
2018-08-06T05:20:09.462Z,49.10
2018-08-06T05:22:38.756Z,49.20
2018-08-06T05:25:08.083Z,49.30
2018-08-06T05:27:37.713Z,49.40
2018-08-06T05:30:08.931Z,49.50
2018-08-06T05:32:38.227Z,49.60
2018-08-06T05:35:07.692Z,49.60
2018-08-06T05:37:37.066Z,49.70
2018-08-06T05:40:07.512Z,49.70
2018-08-06T05:42:36.928Z,49.40
2018-08-06T05:45:06.823Z,49.80
2018-08-06T05:47:36.267Z,49.80
2018-08-06T05:50:07.936Z,49.80
2018-08-06T05:52:37.202Z,49.90
2018-08-06T05:55:07.902Z,50.50
2018-08-06T05:57:37.332Z,50.00
2018-08-06T06:00:13.491Z,50.10
2018-08-06T06:02:43.297Z,50.10
2018-08-06T06:05:12.784Z,50.10
2018-08-06T06:07:42.397Z,50.10
2018-08-06T06:10:13.458Z,50.20
2018-08-06T06:12:42.750Z,50.10
2018-08-06T06:15:15.055Z,50.10
2018-08-06T06:17:44.614Z,50.10
2018-08-06T06:20:13.879Z,50.00
2018-08-06T06:22:43.154Z,49.90
2018-08-06T06:25:13.770Z,49.90
2018-08-06T06:27:43.460Z,49.90
2018-08-06T06:30:15.337Z,49.70
2018-08-06T06:32:44.700Z,49.70
2018-08-06T06:35:14.480Z,49.80
2018-08-06T06:37:44.052Z,49.60
2018-08-06T06:40:13.539Z,49.70
2018-08-06T06:42:43.535Z,49.50
2018-08-06T06:45:12.803Z,48.80
2018-08-06T06:47:42.583Z,48.70
2018-08-06T06:50:11.855Z,49.20
2018-08-06T06:52:41.144Z,49.30
2018-08-06T06:55:12.230Z,49.20
2018-08-06T06:57:41.950Z,49.20
2018-08-06T07:00:11.751Z,49.50
2018-08-06T07:02:41.866Z,49.50
2018-08-06T07:05:11.221Z,49.40
2018-08-06T07:07:40.486Z,49.30
2018-08-06T07:10:12.129Z,48.60
2018-08-06T07:12:41.528Z,49.10
2018-08-06T07:15:13.587Z,49.20
2018-08-06T07:17:44.943Z,49.20
2018-08-06T07:20:15.088Z,49.30
2018-08-06T07:22:44.546Z,49.30
2018-08-06T07:25:13.843Z,49.40
2018-08-06T07:27:43.582Z,49.40
2018-08-06T07:30:14.183Z,49.50
2018-08-06T07:32:45.188Z,49.50
2018-08-06T07:35:14.975Z,49.60
2018-08-06T07:37:44.292Z,49.70
2018-08-06T07:40:14.515Z,49.70
2018-08-06T07:42:43.814Z,49.60
2018-08-06T07:45:16.471Z,49.10
2018-08-06T07:47:46.279Z,49.60
2018-08-06T07:50:17.052Z,49.70
2018-08-06T07:52:46.489Z,49.70
2018-08-06T07:55:15.907Z,49.60
2018-08-06T07:57:45.499Z,50.00
2018-08-06T08:00:17.295Z,49.70
2018-08-06T08:02:46.600Z,49.80
2018-08-06T08:05:16.962Z,49.90
2018-08-06T08:07:47.108Z,49.80
2018-08-06T08:10:29.268Z,49.80
2018-08-06T08:12:58.533Z,49.80
2018-08-06T08:15:27.783Z,50.00
2018-08-06T08:17:57.757Z,50.10
2018-08-06T08:20:27.138Z,50.60
2018-08-06T08:22:56.462Z,49.90
2018-08-06T08:25:25.739Z,50.30
2018-08-06T08:27:55.000Z,50.40
2018-08-06T08:30:24.270Z,50.10
2018-08-06T08:32:53.731Z,50.20
2018-08-06T08:35:28.464Z,50.50
2018-08-06T08:37:57.744Z,50.50
2018-08-06T08:40:27.063Z,50.50
2018-08-06T08:42:56.367Z,50.60
2018-08-06T08:45:25.690Z,50.60
2018-08-06T08:47:54.955Z,50.90
2018-08-06T08:50:24.292Z,50.70
2018-08-06T08:55:22.481Z,50.90
2018-08-06T08:57:51.983Z,50.80
2018-08-06T09:00:22.631Z,51.30
2018-08-06T09:02:52.843Z,51.10
2018-08-06T09:05:22.235Z,51.00
2018-08-06T09:07:52.013Z,51.00
2018-08-06T09:10:21.516Z,50.60
2018-08-06T09:12:52.869Z,51.10
2018-08-06T09:15:23.659Z,51.20
2018-08-06T09:17:52.959Z,50.70
2018-08-06T09:20:22.664Z,51.30
2018-08-06T09:22:51.981Z,51.30
2018-08-06T09:25:21.295Z,51.60
2018-08-06T09:27:51.311Z,53.40
2018-08-06T09:30:23.888Z,53.00
2018-08-06T09:32:55.516Z,52.40
2018-08-06T09:35:26.076Z,52.10
2018-08-06T09:38:00.505Z,51.90
2018-08-06T09:40:29.809Z,53.30
2018-08-06T09:42:59.092Z,52.80
2018-08-06T09:45:28.355Z,52.20
2018-08-06T09:47:57.688Z,52.00
2018-08-06T09:50:26.960Z,52.50
2018-08-06T09:52:56.316Z,52.50
2018-08-06T09:55:28.142Z,52.40
2018-08-06T09:57:57.423Z,52.60
2018-08-06T10:00:32.008Z,52.20
2018-08-06T10:03:02.287Z,52.20
2018-08-06T10:05:31.551Z,52.20
2018-08-06T10:08:01.023Z,52.60
2018-08-06T10:10:30.358Z,52.70
2018-08-06T10:12:59.634Z,52.50
2018-08-06T10:15:28.883Z,52.70
2018-08-06T10:17:58.150Z,52.50
2018-08-06T10:20:27.487Z,52.60
2018-08-06T10:22:56.819Z,52.70
2018-08-06T10:25:26.119Z,52.60
2018-08-06T10:27:55.354Z,52.70
2018-08-06T10:30:24.781Z,53.00
2018-08-06T10:32:53.980Z,52.20
2018-08-06T10:35:23.312Z,52.20
2018-08-06T10:37:52.582Z,52.80
2018-08-06T10:40:23.589Z,52.70
2018-08-06T10:42:53.062Z,53.20
2018-08-06T10:45:23.562Z,52.70
2018-08-06T10:47:53.372Z,52.70
2018-08-06T10:50:22.995Z,52.60
2018-08-06T10:52:52.256Z,52.60
2018-08-06T10:55:21.684Z,52.20
2018-08-06T10:57:50.958Z,52.00
2018-08-06T11:00:21.528Z,52.50
2018-08-06T11:02:51.085Z,52.70
2018-08-06T11:05:20.751Z,52.70
2018-08-06T11:07:50.031Z,52.80
2018-08-06T11:10:20.561Z,52.70
2018-08-06T11:12:49.864Z,52.70
2018-08-06T11:15:20.403Z,52.60
2018-08-06T11:17:49.804Z,52.60
2018-08-06T11:20:19.864Z,52.10
2018-08-06T11:22:49.160Z,52.20
2018-08-06T11:25:20.280Z,53.20
2018-08-06T11:27:49.735Z,52.70
2018-08-06T11:30:20.412Z,52.60
2018-08-06T11:32:50.431Z,52.70
2018-08-06T11:35:19.699Z,52.70
2018-08-06T11:37:48.963Z,52.80
2018-08-06T11:40:18.614Z,52.70
2018-08-06T11:42:48.546Z,52.50
2018-08-06T11:45:19.056Z,52.80
2018-08-06T11:47:48.346Z,52.30
2018-08-06T11:50:17.656Z,52.90
2018-08-06T11:52:46.948Z,52.70
2018-08-06T11:55:16.292Z,52.80
2018-08-06T11:57:45.564Z,52.80
2018-08-06T12:00:17.167Z,52.80
2018-08-06T12:02:46.702Z,52.80
2018-08-06T12:05:16.055Z,52.70
2018-08-06T12:07:45.338Z,52.80
2018-08-06T12:10:16.165Z,52.90
2018-08-06T12:12:46.370Z,52.80
2018-08-06T12:15:15.838Z,52.80
2018-08-06T12:17:45.436Z,52.80
2018-08-06T12:20:16.553Z,52.90
2018-08-06T12:25:16.595Z,52.30
2018-08-06T12:27:46.611Z,52.80
2018-08-06T12:30:18.695Z,52.90
2018-08-06T12:32:48.711Z,52.90
2018-08-06T12:35:18.420Z,52.80
2018-08-06T12:37:48.176Z,52.80
2018-08-06T12:40:18.742Z,52.40
2018-08-06T12:42:48.074Z,52.90
2018-08-06T12:45:18.004Z,52.80
2018-08-06T12:47:47.687Z,52.80
2018-08-06T12:50:17.690Z,52.90
2018-08-06T12:52:47.167Z,52.90
2018-08-06T12:55:17.351Z,52.90
2018-08-06T12:57:46.855Z,52.90
2018-08-06T13:00:22.587Z,52.90
2018-08-06T13:02:52.286Z,52.90
2018-08-06T13:05:22.105Z,52.90
2018-08-06T13:07:51.442Z,52.40
2018-08-06T13:10:20.787Z,52.40
2018-08-06T13:12:50.103Z,52.90
2018-08-06T13:15:19.371Z,52.90
2018-08-06T13:17:48.692Z,52.80
2018-08-06T13:20:18.014Z,52.70
2018-08-06T13:22:48.311Z,52.50
2018-08-06T13:25:17.618Z,52.20
2018-08-06T13:27:46.879Z,52.70
2018-08-06T13:30:16.369Z,52.10
2018-08-06T13:32:45.961Z,52.60
2018-08-06T13:35:16.171Z,52.60
2018-08-06T13:37:45.443Z,52.60
2018-08-06T13:40:14.730Z,52.10
2018-08-06T13:42:43.990Z,52.60
2018-08-06T13:45:13.996Z,53.20
2018-08-06T13:47:43.401Z,52.70
2018-08-06T13:50:12.917Z,52.70
2018-08-06T13:52:42.177Z,52.60
2018-08-06T13:55:12.330Z,52.60
2018-08-06T13:57:42.007Z,52.60
2018-08-06T14:00:14.330Z,52.60
2018-08-06T14:02:43.976Z,52.00
2018-08-06T14:05:14.674Z,52.00
2018-08-06T14:07:45.219Z,51.90
2018-08-06T14:10:14.878Z,52.00
2018-08-06T14:12:47.811Z,51.90
2018-08-06T14:15:24.239Z,52.40
2018-08-06T14:17:54.329Z,52.50
2018-08-06T14:20:23.587Z,52.50
2018-08-06T14:22:53.341Z,51.60
2018-08-06T14:25:22.636Z,51.40
2018-08-06T14:27:52.055Z,51.90
2018-08-06T14:30:21.340Z,52.00
2018-08-06T14:32:50.619Z,52.20
2018-08-06T14:35:19.918Z,51.80
2018-08-06T14:37:49.191Z,52.40
2018-08-06T14:40:19.380Z,52.40
2018-08-06T14:42:48.644Z,52.50
2018-08-06T14:45:17.919Z,52.40
2018-08-06T14:47:47.205Z,52.50
2018-08-06T14:50:16.556Z,52.50
2018-08-06T14:52:45.903Z,52.50
2018-08-06T14:55:15.192Z,52.60
2018-08-06T14:57:44.724Z,52.60
2018-08-06T15:00:19.107Z,52.60
2018-08-06T15:02:49.070Z,52.50
2018-08-06T15:05:18.330Z,52.50
2018-08-06T15:07:48.059Z,52.60
2018-08-06T15:10:17.334Z,52.10
2018-08-06T15:12:46.675Z,52.60
2018-08-06T15:15:17.101Z,52.60
2018-08-06T15:17:46.672Z,52.60
2018-08-06T15:20:17.226Z,52.60
2018-08-06T15:22:46.747Z,52.20
2018-08-06T15:25:20.643Z,52.70
2018-08-06T15:27:50.423Z,52.70
2018-08-06T15:30:19.803Z,52.70
2018-08-06T15:32:49.134Z,52.70
2018-08-06T15:35:18.488Z,52.20
2018-08-06T15:37:47.775Z,52.70
2018-08-06T15:40:18.915Z,52.50
2018-08-06T15:42:48.191Z,52.70
2018-08-06T15:45:17.471Z,52.20
2018-08-06T15:47:46.919Z,52.70
2018-08-06T15:50:18.239Z,52.30
2018-08-06T15:52:47.525Z,52.80
2018-08-06T15:55:16.992Z,52.70
2018-08-06T15:57:46.287Z,52.80
2018-08-06T16:00:17.840Z,52.80
2018-08-06T16:02:47.358Z,54.60
2018-08-06T16:05:16.668Z,56.20
2018-08-06T16:07:46.332Z,55.70
2018-08-06T16:10:16.038Z,56.40
2018-08-06T16:12:45.436Z,56.60
2018-08-06T16:15:15.556Z,56.40
2018-08-06T16:17:45.267Z,56.20
2018-08-06T16:20:15.731Z,56.20
2018-08-06T16:22:45.012Z,55.90
2018-08-06T16:25:14.576Z,55.70
2018-08-06T16:27:43.852Z,55.60
2018-08-06T16:30:17.647Z,55.60
2018-08-06T16:32:47.627Z,55.60
2018-08-06T16:35:18.688Z,55.40
2018-08-06T16:37:48.488Z,55.30
2018-08-06T16:40:17.760Z,55.10
2018-08-06T16:42:47.302Z,55.00
2018-08-06T16:45:16.587Z,54.90
2018-08-06T16:47:46.111Z,54.90
2018-08-06T16:50:16.620Z,54.60
2018-08-06T16:52:46.239Z,54.60
2018-08-06T16:55:15.449Z,54.50
2018-08-06T16:57:44.731Z,54.50
2018-08-06T17:06:14.485Z,54.40
2018-08-06T17:08:43.790Z,54.30
2018-08-06T17:11:13.051Z,54.30
2018-08-06T17:13:42.425Z,54.30
2018-08-06T17:16:11.879Z,53.80
2018-08-06T17:18:41.158Z,54.20
2018-08-06T17:21:10.438Z,54.20
2018-08-06T17:23:39.810Z,54.30
2018-08-06T17:26:09.087Z,54.30
2018-08-06T17:28:38.521Z,54.30
2018-08-06T17:31:07.797Z,53.80
2018-08-06T17:33:37.253Z,54.30
2018-08-06T17:36:06.539Z,54.30
2018-08-06T17:38:35.828Z,54.30
2018-08-06T17:41:05.082Z,54.30
2018-08-06T17:43:34.359Z,54.30
2018-08-06T17:46:03.631Z,54.30
2018-08-06T17:48:33.044Z,54.40
2018-08-06T17:51:03.124Z,54.40
2018-08-06T17:53:32.534Z,54.40
2018-08-06T17:56:02.413Z,54.40
2018-08-06T17:58:31.677Z,54.00
2018-08-06T18:01:01.045Z,54.50
2018-08-06T18:03:30.378Z,54.50
2018-08-06T18:05:59.687Z,54.50
2018-08-06T18:08:28.982Z,54.50
2018-08-06T18:10:58.252Z,54.60
2018-08-06T18:13:27.507Z,54.60
2018-08-06T18:15:56.765Z,54.50
2018-08-06T18:18:26.131Z,54.50
2018-08-06T18:20:55.405Z,54.60
2018-08-06T18:23:24.727Z,55.20
2018-08-06T18:25:54.082Z,54.60
2018-08-06T18:28:23.319Z,54.60
2018-08-06T18:30:52.588Z,54.60
2018-08-06T18:33:21.868Z,54.10
2018-08-06T18:35:51.124Z,54.60
2018-08-06T18:38:20.429Z,54.60
2018-08-06T18:40:50.056Z,54.00
2018-08-06T18:43:19.593Z,54.10
2018-08-06T18:45:48.809Z,54.10
2018-08-06T18:48:18.118Z,54.10
2018-08-06T18:50:47.419Z,54.10
2018-08-06T18:53:16.720Z,54.10
2018-08-06T18:55:45.979Z,54.60
2018-08-06T18:58:15.417Z,54.10
2018-08-06T19:00:46.936Z,54.60
2018-08-06T19:03:16.474Z,54.60
2018-08-06T19:05:45.756Z,54.60
2018-08-06T19:08:15.044Z,54.10
2018-08-06T19:10:44.313Z,54.60
2018-08-06T19:13:18.955Z,54.60
2018-08-06T19:15:48.316Z,54.00
2018-08-06T19:18:22.860Z,54.50
2018-08-06T19:21:01.036Z,54.50
2018-08-06T19:23:30.313Z,54.50
2018-08-06T19:25:59.594Z,54.50
2018-08-06T19:28:28.875Z,54.50
2018-08-06T19:31:03.348Z,53.90
2018-08-06T19:33:32.668Z,54.40
2018-08-06T19:38:30.767Z,53.90
2018-08-06T19:41:00.348Z,54.40
2018-08-06T19:43:37.545Z,53.90
2018-08-06T19:46:09.979Z,54.40
2018-08-06T19:48:39.943Z,54.00
2018-08-06T19:51:12.787Z,54.40
2018-08-06T19:53:43.232Z,53.80
2018-08-06T19:56:13.792Z,54.40
2018-08-06T19:58:43.315Z,53.80
2018-08-06T20:01:14.743Z,54.30
2018-08-06T20:03:44.157Z,54.30
2018-08-06T20:06:13.496Z,54.30
2018-08-06T20:08:42.775Z,54.30
2018-08-06T20:11:12.153Z,53.80
2018-08-06T20:16:10.282Z,54.30
2018-08-06T20:18:39.619Z,54.30
2018-08-06T20:21:08.993Z,54.20
2018-08-06T20:23:38.309Z,54.30
2018-08-06T20:26:07.581Z,53.80
2018-08-06T20:28:36.839Z,54.10
2018-08-06T20:31:06.113Z,53.60
2018-08-06T20:33:35.428Z,53.60
2018-08-06T20:36:04.932Z,53.50
2018-08-06T20:38:34.284Z,54.00
2018-08-06T20:41:03.610Z,53.60
2018-08-06T20:43:32.936Z,53.20
2018-08-06T20:46:02.289Z,52.00
2018-08-06T20:48:31.827Z,52.60
2018-08-06T20:51:01.103Z,52.40
2018-08-06T20:53:30.538Z,52.30
2018-08-06T20:55:59.835Z,52.00
2018-08-06T20:58:29.126Z,52.00
2018-08-06T21:00:58.392Z,51.90
2018-08-06T21:03:27.664Z,51.10
2018-08-06T21:05:56.958Z,51.60
2018-08-06T21:08:26.237Z,51.60
2018-08-06T21:10:55.559Z,51.30
2018-08-06T21:13:24.847Z,51.10
2018-08-06T21:15:54.154Z,51.20
2018-08-06T21:18:23.469Z,51.30
2018-08-06T21:20:52.803Z,50.90
2018-08-06T21:23:24.708Z,51.00
2018-08-06T21:25:53.958Z,51.00
2018-08-06T21:28:23.406Z,51.70
2018-08-06T21:30:52.692Z,51.70
2018-08-06T21:33:23.240Z,51.90
2018-08-06T21:35:52.497Z,51.90
2018-08-06T21:38:21.763Z,52.00
2018-08-06T21:40:51.024Z,51.60
2018-08-06T21:43:20.431Z,52.20
2018-08-06T21:45:49.749Z,52.20
2018-08-06T21:48:18.995Z,52.20
2018-08-06T21:50:48.326Z,52.30
2018-08-06T21:53:17.635Z,52.30
2018-08-06T21:55:46.944Z,51.90
2018-08-06T21:58:16.288Z,52.40
2018-08-06T22:00:45.580Z,51.90
2018-08-06T22:03:16.291Z,52.50
2018-08-06T22:05:46.192Z,52.50
2018-08-06T22:08:15.512Z,52.50
2018-08-06T22:10:45.650Z,52.50
2018-08-06T22:13:15.175Z,52.30
2018-08-06T22:15:45.639Z,49.90
2018-08-06T22:20:43.746Z,47.20
2018-08-06T22:23:13.014Z,47.60
2018-08-06T22:25:42.297Z,46.20
2018-08-06T22:28:13.083Z,45.40
2018-08-06T22:30:42.408Z,44.90
2018-08-06T22:33:11.723Z,43.60
2018-08-06T22:35:41.019Z,43.40
2018-08-06T22:38:10.900Z,43.80
2018-08-06T22:40:40.194Z,43.80
2018-08-06T22:43:09.486Z,43.30
2018-08-06T22:45:38.860Z,43.10
2018-08-06T22:48:08.133Z,42.80
2018-08-06T22:50:37.401Z,42.80
2018-08-06T22:53:06.679Z,42.70
2018-08-06T22:55:47.039Z,43.00
2018-08-06T22:58:16.315Z,42.80
2018-08-06T23:00:45.599Z,42.50
2018-08-06T23:03:14.876Z,42.50
2018-08-06T23:05:44.137Z,42.30
2018-08-06T23:08:13.444Z,42.40
2018-08-06T23:10:42.903Z,42.20
2018-08-06T23:13:12.359Z,42.10
2018-08-06T23:15:41.632Z,42.40
2018-08-06T23:18:11.122Z,41.80
2018-08-06T23:20:40.395Z,42.20
2018-08-06T23:23:09.831Z,42.20
2018-08-06T23:25:40.240Z,42.30
2018-08-06T23:28:09.518Z,42.40
2018-08-06T23:33:07.629Z,42.20
2018-08-06T23:35:36.899Z,42.70
2018-08-06T23:38:06.408Z,42.40
2018-08-06T23:40:35.631Z,43.00
2018-08-06T23:43:04.947Z,43.10
2018-08-06T23:45:34.835Z,42.60
2018-08-06T23:48:04.313Z,43.00
2018-08-06T23:50:33.686Z,42.80
2018-08-06T23:53:03.134Z,42.70
2018-08-06T23:55:32.403Z,42.60
2018-08-06T23:58:01.663Z,42.70
